KMOP/MOP METAR and TAF weather

Enter ICAO airport designator
Station Type Date Time Source
KMOP METAR 2021/09/24 02:15 UTC NOAA

KMOP 240215Z AUTO 26006KT 10SM SCT013 BKN042 OVC060 10/10 A2981 RMK AO2 T00950095 P0001


Station Type Date Time Source
KMOP Decoded METAR 2021/09/24 02:15 UTC NOAA

Mount Pleasant, Mount Pleasant Municipal Airport, MI, United States (KMOP) 43-37N 84-44W
Sep 23, 2021 - 10:15 PM EDT / 2021.09.24 0215 UTC
Wind: from the W (260 degrees) at 7 MPH (6 KT):0
Visibility: 10 mile(s):0
Sky conditions: overcast
Precipitation last hour: 0.01 inches
Temperature: 49.1 F (9.5 C)
Dew Point: 49.1 F (9.5 C)
Relative Humidity: 100%
Pressure (altimeter): 29.81 in. Hg (1009 hPa)
ob: KMOP 240215Z AUTO 26006KT 10SM SCT013 BKN042 OVC060 10/10 A2981 RMK AO2 T00950095 P0001
cycle: 2

Station Type Date Time Source
KMOP TAF UTC NOAA

Error!

Example: see airport list